sensor_id;sensor_type;location;lat;lon;timestamp;pressure;altitude;pressure_sealevel;temperature;humidity
68077;BME280;54866;53.458;14.540;2022-09-27T00:01:59;98953.37;;;11.06;72.76
68077;BME280;54866;53.458;14.540;2022-09-27T00:04:33;98955.23;;;11.04;72.64
68077;BME280;54866;53.458;14.540;2022-09-27T00:07:06;98952.95;;;11.00;72.74
68077;BME280;54866;53.458;14.540;2022-09-27T00:09:34;98953.77;;;11.01;72.72
68077;BME280;54866;53.458;14.540;2022-09-27T00:12:04;98949.95;;;10.99;72.89
68077;BME280;54866;53.458;14.540;2022-09-27T00:14:34;98947.47;;;10.98;73.00
68077;BME280;54866;53.458;14.540;2022-09-27T00:17:04;98951.34;;;10.96;73.28
68077;BME280;54866;53.458;14.540;2022-09-27T00:19:34;98940.20;;;10.93;73.33
68077;BME280;54866;53.458;14.540;2022-09-27T00:22:06;98946.52;;;10.92;73.45
68077;BME280;54866;53.458;14.540;2022-09-27T00:24:36;98932.48;;;10.91;73.63
68077;BME280;54866;53.458;14.540;2022-09-27T00:27:06;98933.35;;;10.90;73.73
68077;BME280;54866;53.458;14.540;2022-09-27T00:29:35;98929.31;;;10.87;73.75
68077;BME280;54866;53.458;14.540;2022-09-27T00:32:06;98929.91;;;10.85;73.84
68077;BME280;54866;53.458;14.540;2022-09-27T00:34:36;98926.87;;;10.86;73.83
68077;BME280;54866;53.458;14.540;2022-09-27T00:37:05;98925.25;;;10.86;73.75
68077;BME280;54866;53.458;14.540;2022-09-27T00:39:35;98925.98;;;10.86;73.76
68077;BME280;54866;53.458;14.540;2022-09-27T00:42:10;98920.23;;;10.85;73.86
68077;BME280;54866;53.458;14.540;2022-09-27T00:45:01;98919.31;;;10.86;73.97
68077;BME280;54866;53.458;14.540;2022-09-27T00:47:35;98909.87;;;10.86;74.18
68077;BME280;54866;53.458;14.540;2022-09-27T00:50:12;98915.21;;;10.86;74.09
68077;BME280;54866;53.458;14.540;2022-09-27T00:52:49;98905.98;;;10.85;73.99
68077;BME280;54866;53.458;14.540;2022-09-27T00:55:27;98899.99;;;10.83;74.13
68077;BME280;54866;53.458;14.540;2022-09-27T00:57:59;98894.34;;;10.82;74.25
68077;BME280;54866;53.458;14.540;2022-09-27T01:00:29;98891.08;;;10.81;74.24
68077;BME280;54866;53.458;14.540;2022-09-27T01:03:00;98892.06;;;10.80;74.35
68077;BME280;54866;53.458;14.540;2022-09-27T01:05:34;98882.16;;;10.81;74.44
68077;BME280;54866;53.458;14.540;2022-09-27T01:08:04;98888.30;;;10.81;74.52
68077;BME280;54866;53.458;14.540;2022-09-27T01:10:39;98879.26;;;10.80;74.43
68077;BME280;54866;53.458;14.540;2022-09-27T01:13:19;98873.66;;;10.81;74.36
68077;BME280;54866;53.458;14.540;2022-09-27T01:15:58;98875.26;;;10.81;74.12
68077;BME280;54866;53.458;14.540;2022-09-27T01:18:33;98873.57;;;10.80;74.35
68077;BME280;54866;53.458;14.540;2022-09-27T01:21:28;98863.88;;;10.80;74.29
68077;BME280;54866;53.458;14.540;2022-09-27T01:24:21;98865.88;;;10.81;74.44
68077;BME280;54866;53.458;14.540;2022-09-27T01:27:14;98863.04;;;10.80;74.49
68077;BME280;54866;53.458;14.540;2022-09-27T01:29:59;98859.92;;;10.79;74.57
68077;BME280;54866;53.458;14.540;2022-09-27T01:32:35;98855.00;;;10.81;74.51
68077;BME280;54866;53.458;14.540;2022-09-27T01:35:17;98848.63;;;10.81;74.51
68077;BME280;54866;53.458;14.540;2022-09-27T01:37:53;98851.27;;;10.81;74.58
68077;BME280;54866;53.458;14.540;2022-09-27T01:40:31;98850.90;;;10.85;74.48
68077;BME280;54866;53.458;14.540;2022-09-27T01:43:07;98846.27;;;10.85;74.63
68077;BME280;54866;53.458;14.540;2022-09-27T01:45:41;98847.46;;;10.85;74.66
68077;BME280;54866;53.458;14.540;2022-09-27T01:48:15;98844.23;;;10.84;74.98
68077;BME280;54866;53.458;14.540;2022-09-27T01:50:50;98845.88;;;10.84;75.05
68077;BME280;54866;53.458;14.540;2022-09-27T01:53:24;98843.04;;;10.81;75.13
68077;BME280;54866;53.458;14.540;2022-09-27T01:55:57;98847.90;;;10.80;75.25
68077;BME280;54866;53.458;14.540;2022-09-27T01:58:35;98841.99;;;10.78;75.28
68077;BME280;54866;53.458;14.540;2022-09-27T02:01:06;98837.10;;;10.75;75.79
68077;BME280;54866;53.458;14.540;2022-09-27T02:03:41;98842.11;;;10.74;75.94
68077;BME280;54866;53.458;14.540;2022-09-27T02:06:15;98832.97;;;10.71;76.15
68077;BME280;54866;53.458;14.540;2022-09-27T02:08:50;98830.83;;;10.68;76.45
68077;BME280;54866;53.458;14.540;2022-09-27T02:11:21;98823.66;;;10.65;76.60
68077;BME280;54866;53.458;14.540;2022-09-27T02:13:55;98821.42;;;10.64;76.54
68077;BME280;54866;53.458;14.540;2022-09-27T02:16:31;98816.41;;;10.62;76.67
68077;BME280;54866;53.458;14.540;2022-09-27T02:19:10;98817.24;;;10.61;76.97
68077;BME280;54866;53.458;14.540;2022-09-27T02:21:53;98815.77;;;10.59;77.20
68077;BME280;54866;53.458;14.540;2022-09-27T02:24:27;98808.89;;;10.58;77.23
68077;BME280;54866;53.458;14.540;2022-09-27T02:27:05;98804.08;;;10.55;77.92
68077;BME280;54866;53.458;14.540;2022-09-27T02:29:42;98805.63;;;10.53;77.47
68077;BME280;54866;53.458;14.540;2022-09-27T02:32:14;98802.08;;;10.51;77.88
68077;BME280;54866;53.458;14.540;2022-09-27T02:34:45;98800.52;;;10.47;78.16
68077;BME280;54866;53.458;14.540;2022-09-27T02:37:17;98797.09;;;10.48;78.25
68077;BME280;54866;53.458;14.540;2022-09-27T02:39:47;98793.06;;;10.48;78.03
68077;BME280;54866;53.458;14.540;2022-09-27T02:42:17;98796.30;;;10.47;78.34
68077;BME280;54866;53.458;14.540;2022-09-27T02:44:47;98789.30;;;10.45;78.47
68077;BME280;54866;53.458;14.540;2022-09-27T02:47:30;98790.96;;;10.45;78.50
68077;BME280;54866;53.458;14.540;2022-09-27T02:50:18;98785.98;;;10.43;78.56
68077;BME280;54866;53.458;14.540;2022-09-27T02:53:01;98783.56;;;10.43;78.59
68077;BME280;54866;53.458;14.540;2022-09-27T02:55:42;98785.67;;;10.43;78.88
68077;BME280;54866;53.458;14.540;2022-09-27T02:58:23;98789.55;;;10.43;78.77
68077;BME280;54866;53.458;14.540;2022-09-27T03:01:00;98792.98;;;10.42;78.72
68077;BME280;54866;53.458;14.540;2022-09-27T03:03:37;98789.21;;;10.43;78.91
68077;BME280;54866;53.458;14.540;2022-09-27T03:06:10;98787.73;;;10.44;78.66
68077;BME280;54866;53.458;14.540;2022-09-27T03:08:42;98783.27;;;10.42;78.67
68077;BME280;54866;53.458;14.540;2022-09-27T03:11:12;98780.54;;;10.42;78.88
68077;BME280;54866;53.458;14.540;2022-09-27T03:13:42;98783.26;;;10.41;78.76
68077;BME280;54866;53.458;14.540;2022-09-27T03:16:13;98782.75;;;10.41;78.83
68077;BME280;54866;53.458;14.540;2022-09-27T03:18:43;98776.73;;;10.41;78.81
68077;BME280;54866;53.458;14.540;2022-09-27T03:21:13;98780.93;;;10.41;78.88
68077;BME280;54866;53.458;14.540;2022-09-27T03:23:43;98779.51;;;10.42;78.77
68077;BME280;54866;53.458;14.540;2022-09-27T03:26:12;98774.24;;;10.41;78.91
68077;BME280;54866;53.458;14.540;2022-09-27T03:28:42;98771.20;;;10.40;78.91
68077;BME280;54866;53.458;14.540;2022-09-27T03:31:12;98762.52;;;10.39;79.25
68077;BME280;54866;53.458;14.540;2022-09-27T03:33:43;98756.79;;;10.38;79.26
68077;BME280;54866;53.458;14.540;2022-09-27T03:36:17;98754.37;;;10.38;79.52
68077;BME280;54866;53.458;14.540;2022-09-27T03:38:47;98753.80;;;10.38;79.68
68077;BME280;54866;53.458;14.540;2022-09-27T03:41:17;98751.86;;;10.38;79.61
68077;BME280;54866;53.458;14.540;2022-09-27T03:43:47;98750.80;;;10.36;79.52
68077;BME280;54866;53.458;14.540;2022-09-27T03:46:16;98746.63;;;10.35;79.81
68077;BME280;54866;53.458;14.540;2022-09-27T03:48:46;98740.09;;;10.33;80.06
68077;BME280;54866;53.458;14.540;2022-09-27T03:51:16;98739.52;;;10.33;80.08
68077;BME280;54866;53.458;14.540;2022-09-27T03:53:46;98734.34;;;10.33;80.27
68077;BME280;54866;53.458;14.540;2022-09-27T03:56:16;98730.85;;;10.28;81.40
68077;BME280;54866;53.458;14.540;2022-09-27T03:58:46;98735.08;;;10.24;82.01
68077;BME280;54866;53.458;14.540;2022-09-27T04:01:16;98731.44;;;10.18;83.00
68077;BME280;54866;53.458;14.540;2022-09-27T04:03:46;98730.36;;;10.12;83.41
68077;BME280;54866;53.458;14.540;2022-09-27T04:06:16;98725.83;;;10.05;83.90
68077;BME280;54866;53.458;14.540;2022-09-27T04:08:46;98728.30;;;10.02;84.13
68077;BME280;54866;53.458;14.540;2022-09-27T04:11:16;98722.44;;;9.97;84.67
68077;BME280;54866;53.458;14.540;2022-09-27T04:13:46;98724.02;;;9.94;84.77
68077;BME280;54866;53.458;14.540;2022-09-27T04:16:16;98719.80;;;9.91;84.38
68077;BME280;54866;53.458;14.540;2022-09-27T04:18:46;98716.80;;;9.89;84.33
68077;BME280;54866;53.458;14.540;2022-09-27T04:21:16;98719.58;;;9.90;84.03
68077;BME280;54866;53.458;14.540;2022-09-27T04:23:47;98716.12;;;9.89;84.59
68077;BME280;54866;53.458;14.540;2022-09-27T04:26:17;98719.02;;;9.92;83.94
68077;BME280;54866;53.458;14.540;2022-09-27T04:28:48;98714.68;;;9.94;83.56
68077;BME280;54866;53.458;14.540;2022-09-27T04:31:20;98716.73;;;9.96;83.18
68077;BME280;54866;53.458;14.540;2022-09-27T04:33:49;98708.34;;;10.01;82.93
68077;BME280;54866;53.458;14.540;2022-09-27T04:36:21;98707.27;;;10.01;83.17
68077;BME280;54866;53.458;14.540;2022-09-27T04:38:58;98704.98;;;10.05;83.04
68077;BME280;54866;53.458;14.540;2022-09-27T04:41:29;98706.68;;;10.07;83.06
68077;BME280;54866;53.458;14.540;2022-09-27T04:43:59;98707.87;;;10.07;83.02
68077;BME280;54866;53.458;14.540;2022-09-27T04:46:29;98703.80;;;10.06;83.16
68077;BME280;54866;53.458;14.540;2022-09-27T04:48:59;98705.75;;;10.10;82.71
68077;BME280;54866;53.458;14.540;2022-09-27T04:51:29;98697.87;;;10.10;82.81
68077;BME280;54866;53.458;14.540;2022-09-27T04:54:01;98693.06;;;10.11;83.43
68077;BME280;54866;53.458;14.540;2022-09-27T04:56:31;98693.95;;;10.09;84.37
68077;BME280;54866;53.458;14.540;2022-09-27T04:59:00;98697.84;;;10.04;85.19
68077;BME280;54866;53.458;14.540;2022-09-27T05:01:30;98691.89;;;9.95;85.76
68077;BME280;54866;53.458;14.540;2022-09-27T05:04:00;98692.88;;;9.89;86.41
68077;BME280;54866;53.458;14.540;2022-09-27T05:06:30;98689.77;;;9.82;86.82
68077;BME280;54866;53.458;14.540;2022-09-27T05:09:00;98687.17;;;9.76;87.37
68077;BME280;54866;53.458;14.540;2022-09-27T05:11:29;98686.79;;;9.69;87.48
68077;BME280;54866;53.458;14.540;2022-09-27T05:13:59;98680.39;;;9.65;87.85
68077;BME280;54866;53.458;14.540;2022-09-27T05:16:29;98682.04;;;9.61;88.19
68077;BME280;54866;53.458;14.540;2022-09-27T05:18:59;98687.70;;;9.59;88.39
68077;BME280;54866;53.458;14.540;2022-09-27T05:21:28;98686.41;;;9.55;89.45
68077;BME280;54866;53.458;14.540;2022-09-27T05:23:59;98689.52;;;9.52;89.58
68077;BME280;54866;53.458;14.540;2022-09-27T05:26:28;98701.30;;;9.50;89.69
68077;BME280;54866;53.458;14.540;2022-09-27T05:28:58;98691.02;;;9.46;90.20
68077;BME280;54866;53.458;14.540;2022-09-27T05:31:28;98691.10;;;9.44;91.06
68077;BME280;54866;53.458;14.540;2022-09-27T05:33:58;98694.63;;;9.44;90.86
68077;BME280;54866;53.458;14.540;2022-09-27T05:36:27;98689.71;;;9.40;91.61
68077;BME280;54866;53.458;14.540;2022-09-27T05:38:58;98689.35;;;9.41;91.73
68077;BME280;54866;53.458;14.540;2022-09-27T05:41:27;98683.48;;;9.38;92.03
68077;BME280;54866;53.458;14.540;2022-09-27T05:44:00;98688.23;;;9.39;92.00
68077;BME280;54866;53.458;14.540;2022-09-27T05:46:30;98688.66;;;9.42;92.12
68077;BME280;54866;53.458;14.540;2022-09-27T05:49:00;98692.05;;;9.43;91.94
68077;BME280;54866;53.458;14.540;2022-09-27T05:51:30;98683.62;;;9.43;92.03
68077;BME280;54866;53.458;14.540;2022-09-27T05:53:59;98684.52;;;9.45;92.33
68077;BME280;54866;53.458;14.540;2022-09-27T05:56:30;98688.86;;;9.47;92.46
68077;BME280;54866;53.458;14.540;2022-09-27T05:58:59;98687.15;;;9.46;92.60
68077;BME280;54866;53.458;14.540;2022-09-27T06:01:29;98688.53;;;9.48;92.63
68077;BME280;54866;53.458;14.540;2022-09-27T06:03:59;98676.05;;;9.50;92.45
68077;BME280;54866;53.458;14.540;2022-09-27T06:06:29;98676.90;;;9.53;92.57
68077;BME280;54866;53.458;14.540;2022-09-27T06:08:58;98685.14;;;9.57;92.49
68077;BME280;54866;53.458;14.540;2022-09-27T06:11:28;98680.05;;;9.57;92.51
68077;BME280;54866;53.458;14.540;2022-09-27T06:13:58;98681.14;;;9.59;92.27
68077;BME280;54866;53.458;14.540;2022-09-27T06:16:28;98684.84;;;9.61;92.06
68077;BME280;54866;53.458;14.540;2022-09-27T06:18:57;98681.54;;;9.62;92.22
68077;BME280;54866;53.458;14.540;2022-09-27T06:21:27;98683.71;;;9.66;91.84
68077;BME280;54866;53.458;14.540;2022-09-27T06:23:59;98686.20;;;9.71;91.22
68077;BME280;54866;53.458;14.540;2022-09-27T06:26:29;98685.30;;;9.75;91.02
68077;BME280;54866;53.458;14.540;2022-09-27T06:28:59;98680.93;;;9.78;91.14
68077;BME280;54866;53.458;14.540;2022-09-27T06:31:28;98684.14;;;9.79;91.45
68077;BME280;54866;53.458;14.540;2022-09-27T06:33:59;98680.33;;;9.83;91.19
68077;BME280;54866;53.458;14.540;2022-09-27T06:36:29;98687.91;;;9.86;91.15
68077;BME280;54866;53.458;14.540;2022-09-27T06:39:00;98691.98;;;9.89;90.82
68077;BME280;54866;53.458;14.540;2022-09-27T06:41:31;98689.52;;;9.96;90.63
68077;BME280;54866;53.458;14.540;2022-09-27T06:44:01;98687.90;;;9.98;90.58
68077;BME280;54866;53.458;14.540;2022-09-27T06:46:31;98687.27;;;9.99;90.81
68077;BME280;54866;53.458;14.540;2022-09-27T06:49:01;98688.13;;;9.99;90.89
68077;BME280;54866;53.458;14.540;2022-09-27T06:51:31;98684.53;;;10.00;90.96
68077;BME280;54866;53.458;14.540;2022-09-27T06:54:00;98687.23;;;10.01;90.77
68077;BME280;54866;53.458;14.540;2022-09-27T06:56:30;98687.30;;;10.01;91.33
68077;BME280;54866;53.458;14.540;2022-09-27T06:59:00;98696.73;;;10.01;91.29
68077;BME280;54866;53.458;14.540;2022-09-27T07:01:47;98691.09;;;10.01;91.59
68077;BME280;54866;53.458;14.540;2022-09-27T07:04:19;98691.45;;;10.01;91.69
68077;BME280;54866;53.458;14.540;2022-09-27T07:06:49;98696.61;;;10.01;91.87
68077;BME280;54866;53.458;14.540;2022-09-27T07:09:19;98693.16;;;10.02;91.95
68077;BME280;54866;53.458;14.540;2022-09-27T07:11:48;98695.73;;;10.04;91.95
68077;BME280;54866;53.458;14.540;2022-09-27T07:14:18;98696.45;;;10.07;91.52
68077;BME280;54866;53.458;14.540;2022-09-27T07:16:48;98699.39;;;10.09;91.69
68077;BME280;54866;53.458;14.540;2022-09-27T07:19:18;98699.48;;;10.10;91.82
68077;BME280;54866;53.458;14.540;2022-09-27T07:21:50;98702.48;;;10.11;91.82
68077;BME280;54866;53.458;14.540;2022-09-27T07:24:21;98697.54;;;10.12;91.84
68077;BME280;54866;53.458;14.540;2022-09-27T07:26:50;98701.09;;;10.16;91.34
68077;BME280;54866;53.458;14.540;2022-09-27T07:29:20;98701.29;;;10.19;91.03
68077;BME280;54866;53.458;14.540;2022-09-27T07:31:50;98702.59;;;10.22;90.73
68077;BME280;54866;53.458;14.540;2022-09-27T07:34:22;98703.54;;;10.26;90.38
68077;BME280;54866;53.458;14.540;2022-09-27T07:36:52;98705.54;;;10.31;90.13
68077;BME280;54866;53.458;14.540;2022-09-27T07:39:22;98705.79;;;10.35;89.60
68077;BME280;54866;53.458;14.540;2022-09-27T07:41:52;98702.09;;;10.41;89.06
68077;BME280;54866;53.458;14.540;2022-09-27T07:44:22;98707.57;;;10.46;88.65
68077;BME280;54866;53.458;14.540;2022-09-27T07:46:52;98706.95;;;10.53;87.80
68077;BME280;54866;53.458;14.540;2022-09-27T07:49:22;98702.96;;;10.59;87.31
68077;BME280;54866;53.458;14.540;2022-09-27T07:51:52;98701.62;;;10.65;86.80
68077;BME280;54866;53.458;14.540;2022-09-27T07:54:22;98698.29;;;10.71;86.49
68077;BME280;54866;53.458;14.540;2022-09-27T07:56:52;98697.95;;;10.75;86.32
68077;BME280;54866;53.458;14.540;2022-09-27T07:59:23;98699.91;;;10.80;85.85
68077;BME280;54866;53.458;14.540;2022-09-27T08:01:53;98697.86;;;10.84;85.30
68077;BME280;54866;53.458;14.540;2022-09-27T08:04:24;98699.12;;;10.90;84.89
68077;BME280;54866;53.458;14.540;2022-09-27T08:06:54;98694.20;;;10.95;84.35
68077;BME280;54866;53.458;14.540;2022-09-27T08:09:24;98693.61;;;11.00;84.42
68077;BME280;54866;53.458;14.540;2022-09-27T08:11:56;98694.77;;;11.04;84.35
68077;BME280;54866;53.458;14.540;2022-09-27T08:14:27;98695.02;;;11.06;84.26
68077;BME280;54866;53.458;14.540;2022-09-27T08:16:57;98693.08;;;11.08;84.16
68077;BME280;54866;53.458;14.540;2022-09-27T08:19:26;98696.65;;;11.12;83.95
68077;BME280;54866;53.458;14.540;2022-09-27T08:21:57;98699.65;;;11.18;83.67
68077;BME280;54866;53.458;14.540;2022-09-27T08:24:27;98698.40;;;11.24;83.09
68077;BME280;54866;53.458;14.540;2022-09-27T08:26:57;98697.55;;;11.29;83.14
68077;BME280;54866;53.458;14.540;2022-09-27T08:29:27;98698.27;;;11.31;82.78
68077;BME280;54866;53.458;14.540;2022-09-27T08:31:57;98696.05;;;11.32;82.47
68077;BME280;54866;53.458;14.540;2022-09-27T08:34:26;98692.54;;;11.30;82.32
68077;BME280;54866;53.458;14.540;2022-09-27T08:36:56;98693.61;;;11.28;82.24
68077;BME280;54866;53.458;14.540;2022-09-27T08:39:26;98693.02;;;11.27;82.41
68077;BME280;54866;53.458;14.540;2022-09-27T08:42:04;98693.81;;;11.28;82.53
68077;BME280;54866;53.458;14.540;2022-09-27T08:44:39;98693.05;;;11.35;82.49
68077;BME280;54866;53.458;14.540;2022-09-27T08:47:16;98689.31;;;11.41;82.08
68077;BME280;54866;53.458;14.540;2022-09-27T08:49:51;98691.24;;;11.47;81.95
68077;BME280;54866;53.458;14.540;2022-09-27T08:52:26;98696.55;;;11.51;81.99
68077;BME280;54866;53.458;14.540;2022-09-27T08:55:03;98689.14;;;11.51;81.91
68077;BME280;54866;53.458;14.540;2022-09-27T08:57:34;98690.68;;;11.53;81.80
68077;BME280;54866;53.458;14.540;2022-09-27T09:00:10;98690.52;;;11.55;81.22
68077;BME280;54866;53.458;14.540;2022-09-27T09:02:41;98684.73;;;11.61;80.94
68077;BME280;54866;53.458;14.540;2022-09-27T09:05:13;98690.13;;;11.66;81.02
68077;BME280;54866;53.458;14.540;2022-09-27T09:07:55;98692.02;;;11.70;80.85
68077;BME280;54866;53.458;14.540;2022-09-27T09:10:38;98693.05;;;11.70;80.51
68077;BME280;54866;53.458;14.540;2022-09-27T09:13:42;98692.47;;;11.68;80.75
68077;BME280;54866;53.458;14.540;2022-09-27T09:16:24;98685.91;;;11.65;81.23
68077;BME280;54866;53.458;14.540;2022-09-27T09:19:13;98691.48;;;11.61;81.21
68077;BME280;54866;53.458;14.540;2022-09-27T09:21:56;98686.60;;;11.57;81.41
68077;BME280;54866;53.458;14.540;2022-09-27T09:24:40;98680.84;;;11.60;81.78
68077;BME280;54866;53.458;14.540;2022-09-27T09:27:17;98680.95;;;11.69;81.21
68077;BME280;54866;53.458;14.540;2022-09-27T09:30:09;98679.05;;;11.88;81.49
68077;BME280;54866;53.458;14.540;2022-09-27T09:32:54;98685.77;;;12.07;80.43
68077;BME280;54866;53.458;14.540;2022-09-27T09:35:30;98686.34;;;12.19;79.86
68077;BME280;54866;53.458;14.540;2022-09-27T09:38:08;98680.13;;;12.28;79.67
68077;BME280;54866;53.458;14.540;2022-09-27T09:40:43;98683.34;;;12.32;79.47
68077;BME280;54866;53.458;14.540;2022-09-27T09:43:19;98680.05;;;12.29;79.07
68077;BME280;54866;53.458;14.540;2022-09-27T09:45:53;98691.34;;;12.23;79.54
68077;BME280;54866;53.458;14.540;2022-09-27T09:48:31;98680.10;;;12.14;80.36
68077;BME280;54866;53.458;14.540;2022-09-27T09:51:07;98687.95;;;12.02;80.89
68077;BME280;54866;53.458;14.540;2022-09-27T09:53:44;98693.80;;;11.96;81.42
68077;BME280;54866;53.458;14.540;2022-09-27T09:56:21;98680.63;;;11.92;81.64
68077;BME280;54866;53.458;14.540;2022-09-27T09:58:54;98696.57;;;11.90;82.06
68077;BME280;54866;53.458;14.540;2022-09-27T10:01:29;98687.18;;;11.92;82.09
68077;BME280;54866;53.458;14.540;2022-09-27T10:04:02;98690.13;;;11.93;82.05
68077;BME280;54866;53.458;14.540;2022-09-27T10:06:32;98688.52;;;11.94;82.18
68077;BME280;54866;53.458;14.540;2022-09-27T10:09:02;98676.79;;;11.98;82.64
68077;BME280;54866;53.458;14.540;2022-09-27T10:11:38;98685.77;;;12.04;82.39
68077;BME280;54866;53.458;14.540;2022-09-27T10:14:12;98683.29;;;12.07;82.08
68077;BME280;54866;53.458;14.540;2022-09-27T10:16:44;98687.74;;;12.08;82.10
68077;BME280;54866;53.458;14.540;2022-09-27T10:19:18;98683.14;;;12.05;82.06
68077;BME280;54866;53.458;14.540;2022-09-27T10:21:51;98675.26;;;12.07;81.91
68077;BME280;54866;53.458;14.540;2022-09-27T10:24:21;98674.67;;;12.13;81.78
68077;BME280;54866;53.458;14.540;2022-09-27T10:26:58;98664.81;;;12.20;81.26
68077;BME280;54866;53.458;14.540;2022-09-27T10:29:32;98664.61;;;12.34;81.07
68077;BME280;54866;53.458;14.540;2022-09-27T10:32:04;98660.17;;;12.58;80.75
68077;BME280;54866;53.458;14.540;2022-09-27T10:34:48;98668.52;;;12.73;79.66
68077;BME280;54866;53.458;14.540;2022-09-27T10:37:20;98665.61;;;12.75;79.32
68077;BME280;54866;53.458;14.540;2022-09-27T10:39:51;98667.87;;;12.84;78.75
68077;BME280;54866;53.458;14.540;2022-09-27T10:42:35;98673.74;;;12.98;77.54
68077;BME280;54866;53.458;14.540;2022-09-27T10:45:28;98674.98;;;13.27;77.06
68077;BME280;54866;53.458;14.540;2022-09-27T10:48:00;98680.86;;;13.36;75.80
68077;BME280;54866;53.458;14.540;2022-09-27T10:50:31;98682.94;;;13.26;75.44
68077;BME280;54866;53.458;14.540;2022-09-27T10:53:04;98678.68;;;13.10;75.57
68077;BME280;54866;53.458;14.540;2022-09-27T10:55:36;98670.57;;;12.98;76.53
68077;BME280;54866;53.458;14.540;2022-09-27T10:58:15;98678.99;;;12.87;77.14
68077;BME280;54866;53.458;14.540;2022-09-27T11:00:55;98668.83;;;12.72;77.47
68077;BME280;54866;53.458;14.540;2022-09-27T11:03:26;98673.20;;;12.61;77.80
68077;BME280;54866;53.458;14.540;2022-09-27T11:05:57;98666.02;;;12.54;78.47
68077;BME280;54866;53.458;14.540;2022-09-27T11:08:32;98661.56;;;12.48;78.82
68077;BME280;54866;53.458;14.540;2022-09-27T11:11:17;98656.91;;;12.46;78.99
68077;BME280;54866;53.458;14.540;2022-09-27T11:14:03;98652.70;;;12.45;79.64
68077;BME280;54866;53.458;14.540;2022-09-27T11:16:49;98659.71;;;12.41;80.19
68077;BME280;54866;53.458;14.540;2022-09-27T11:19:34;98659.35;;;12.35;80.64
68077;BME280;54866;53.458;14.540;2022-09-27T11:22:11;98665.08;;;12.22;81.51
68077;BME280;54866;53.458;14.540;2022-09-27T11:24:58;98659.88;;;12.05;82.52
68077;BME280;54866;53.458;14.540;2022-09-27T11:27:42;98657.06;;;11.90;83.02
68077;BME280;54866;53.458;14.540;2022-09-27T11:30:16;98661.52;;;11.84;83.58
68077;BME280;54866;53.458;14.540;2022-09-27T11:33:02;98659.36;;;11.81;84.29
68077;BME280;54866;53.458;14.540;2022-09-27T11:35:46;98653.71;;;11.92;84.95
68077;BME280;54866;53.458;14.540;2022-09-27T11:38:19;98644.44;;;12.25;84.44
68077;BME280;54866;53.458;14.540;2022-09-27T11:41:13;98642.34;;;12.58;83.64
68077;BME280;54866;53.458;14.540;2022-09-27T11:44:02;98643.15;;;12.79;82.81
68077;BME280;54866;53.458;14.540;2022-09-27T11:46:37;98641.04;;;12.88;81.25
68077;BME280;54866;53.458;14.540;2022-09-27T11:49:25;98638.10;;;12.94;80.65
68077;BME280;54866;53.458;14.540;2022-09-27T11:52:14;98641.09;;;12.99;80.11
68077;BME280;54866;53.458;14.540;2022-09-27T11:55:02;98637.27;;;13.03;80.12
68077;BME280;54866;53.458;14.540;2022-09-27T11:57:40;98639.66;;;13.12;79.73
68077;BME280;54866;53.458;14.540;2022-09-27T12:00:39;98640.62;;;13.11;78.85
68077;BME280;54866;53.458;14.540;2022-09-27T12:03:53;98642.06;;;13.08;78.59
68077;BME280;54866;53.458;14.540;2022-09-27T12:06:37;98635.88;;;13.06;78.59
68077;BME280;54866;53.458;14.540;2022-09-27T12:09:13;98632.99;;;13.11;78.85
68077;BME280;54866;53.458;14.540;2022-09-27T12:11:48;98634.20;;;13.09;77.77
68077;BME280;54866;53.458;14.540;2022-09-27T12:14:37;98627.25;;;13.04;77.18
68077;BME280;54866;53.458;14.540;2022-09-27T12:17:13;98631.09;;;13.00;76.51
68077;BME280;54866;53.458;14.540;2022-09-27T12:19:47;98618.59;;;12.98;76.77
68077;BME280;54866;53.458;14.540;2022-09-27T12:22:20;98620.61;;;13.00;76.86
68077;BME280;54866;53.458;14.540;2022-09-27T12:24:53;98620.77;;;12.99;76.44
68077;BME280;54866;53.458;14.540;2022-09-27T12:27:31;98627.26;;;12.99;76.93
68077;BME280;54866;53.458;14.540;2022-09-27T12:30:03;98634.80;;;12.95;76.29
68077;BME280;54866;53.458;14.540;2022-09-27T12:32:39;98633.98;;;12.91;76.80
68077;BME280;54866;53.458;14.540;2022-09-27T12:35:17;98634.73;;;12.89;77.11
68077;BME280;54866;53.458;14.540;2022-09-27T12:37:52;98629.50;;;12.88;76.84
68077;BME280;54866;53.458;14.540;2022-09-27T12:40:28;98633.16;;;12.90;77.13
68077;BME280;54866;53.458;14.540;2022-09-27T12:43:03;98628.50;;;12.89;76.90
68077;BME280;54866;53.458;14.540;2022-09-27T12:45:43;98626.13;;;12.85;76.41
68077;BME280;54866;53.458;14.540;2022-09-27T12:48:24;98613.84;;;12.80;76.95
68077;BME280;54866;53.458;14.540;2022-09-27T12:51:02;98626.61;;;12.77;77.20
68077;BME280;54866;53.458;14.540;2022-09-27T12:53:43;98636.41;;;12.75;77.39
68077;BME280;54866;53.458;14.540;2022-09-27T12:56:33;98626.48;;;12.77;77.23
68077;BME280;54866;53.458;14.540;2022-09-27T13:05:30;98620.10;;;12.84;77.13
68077;BME280;54866;53.458;14.540;2022-09-27T13:08:24;98614.03;;;12.87;77.16
68077;BME280;54866;53.458;14.540;2022-09-27T13:10:59;98615.86;;;12.90;77.01
68077;BME280;54866;53.458;14.540;2022-09-27T13:13:35;98637.89;;;12.91;76.76
68077;BME280;54866;53.458;14.540;2022-09-27T13:16:07;98622.63;;;12.87;76.65
68077;BME280;54866;53.458;14.540;2022-09-27T13:18:55;98613.70;;;12.86;77.05
68077;BME280;54866;53.458;14.540;2022-09-27T13:21:55;98612.30;;;12.86;77.19
68077;BME280;54866;53.458;14.540;2022-09-27T13:24:46;98612.11;;;12.98;77.27
68077;BME280;54866;53.458;14.540;2022-09-27T13:27:37;98613.69;;;13.11;76.99
68077;BME280;54866;53.458;14.540;2022-09-27T13:33:32;98611.56;;;13.41;75.47
68077;BME280;54866;53.458;14.540;2022-09-27T13:36:28;98602.58;;;13.61;74.57
68077;BME280;54866;53.458;14.540;2022-09-27T13:39:21;98604.02;;;13.69;74.30
68077;BME280;54866;53.458;14.540;2022-09-27T13:42:03;98609.98;;;13.70;74.02